ADDS METAR Data INFO
IDs: Format: Raw Decoded Include TAF

Data at: 0635 UTC 15 Dec 2017

KOKB 140952Z AUTO 00000KT 10SM CLR 03/M04 A2996 RMK AO2 SLP145 T00281039 TSNO $